sensor_id;sensor_type;location;lat;lon;timestamp;temperature;humidity
24446;DHT22;13347;50.984;5.822;2023-04-25T00:01:20;7.70;1.00
24446;DHT22;13347;50.984;5.822;2023-04-25T00:03:47;7.70;1.00
24446;DHT22;13347;50.984;5.822;2023-04-25T00:06:14;7.70;1.00
24446;DHT22;13347;50.984;5.822;2023-04-25T00:08:41;7.60;1.00
24446;DHT22;13347;50.984;5.822;2023-04-25T00:11:08;7.60;1.00
24446;DHT22;13347;50.984;5.822;2023-04-25T00:13:35;7.60;1.00
24446;DHT22;13347;50.984;5.822;2023-04-25T00:16:01;7.50;1.00
24446;DHT22;13347;50.984;5.822;2023-04-25T00:18:31;7.40;1.00
24446;DHT22;13347;50.984;5.822;2023-04-25T00:20:58;7.40;20.70
24446;DHT22;13347;50.984;5.822;2023-04-25T00:23:26;7.30;99.90
24446;DHT22;13347;50.984;5.822;2023-04-25T00:25:53;7.30;99.90
24446;DHT22;13347;50.984;5.822;2023-04-25T00:28:20;7.30;99.90
24446;DHT22;13347;50.984;5.822;2023-04-25T00:30:47;7.40;99.90
24446;DHT22;13347;50.984;5.822;2023-04-25T00:33:14;7.40;99.90
24446;DHT22;13347;50.984;5.822;2023-04-25T00:35:42;7.40;99.90
24446;DHT22;13347;50.984;5.822;2023-04-25T00:38:09;7.40;1.00
24446;DHT22;13347;50.984;5.822;2023-04-25T00:40:36;7.40;1.00
24446;DHT22;13347;50.984;5.822;2023-04-25T00:43:03;7.40;1.00
24446;DHT22;13347;50.984;5.822;2023-04-25T00:45:30;7.40;1.00
24446;DHT22;13347;50.984;5.822;2023-04-25T00:47:58;7.40;1.00
24446;DHT22;13347;50.984;5.822;2023-04-25T00:50:25;7.40;1.00
24446;DHT22;13347;50.984;5.822;2023-04-25T00:52:53;7.40;1.00
24446;DHT22;13347;50.984;5.822;2023-04-25T00:55:20;7.30;1.00
24446;DHT22;13347;50.984;5.822;2023-04-25T00:57:48;7.40;1.00
24446;DHT22;13347;50.984;5.822;2023-04-25T01:00:15;7.40;1.00
24446;DHT22;13347;50.984;5.822;2023-04-25T01:02:43;7.40;1.00
24446;DHT22;13347;50.984;5.822;2023-04-25T01:05:11;7.40;1.00
24446;DHT22;13347;50.984;5.822;2023-04-25T01:07:39;7.40;1.00
24446;DHT22;13347;50.984;5.822;2023-04-25T01:10:08;7.40;1.00
24446;DHT22;13347;50.984;5.822;2023-04-25T01:12:35;7.40;1.00
24446;DHT22;13347;50.984;5.822;2023-04-25T01:15:02;7.50;1.00
24446;DHT22;13347;50.984;5.822;2023-04-25T01:17:29;7.50;1.00
24446;DHT22;13347;50.984;5.822;2023-04-25T01:19:56;7.50;1.00
24446;DHT22;13347;50.984;5.822;2023-04-25T01:22:25;7.40;1.00
24446;DHT22;13347;50.984;5.822;2023-04-25T01:24:52;7.40;1.00
24446;DHT22;13347;50.984;5.822;2023-04-25T01:27:19;7.40;1.00
24446;DHT22;13347;50.984;5.822;2023-04-25T01:29:48;7.40;1.00
24446;DHT22;13347;50.984;5.822;2023-04-25T01:32:15;7.40;1.00
24446;DHT22;13347;50.984;5.822;2023-04-25T01:34:42;7.40;1.00
24446;DHT22;13347;50.984;5.822;2023-04-25T01:37:10;7.50;1.00
24446;DHT22;13347;50.984;5.822;2023-04-25T01:39:38;7.40;1.00
24446;DHT22;13347;50.984;5.822;2023-04-25T01:42:05;7.40;1.00
24446;DHT22;13347;50.984;5.822;2023-04-25T01:44:32;7.50;1.00
24446;DHT22;13347;50.984;5.822;2023-04-25T01:46:59;7.40;1.00
24446;DHT22;13347;50.984;5.822;2023-04-25T01:49:26;7.50;1.00
24446;DHT22;13347;50.984;5.822;2023-04-25T01:51:53;7.40;1.00
24446;DHT22;13347;50.984;5.822;2023-04-25T01:54:20;7.40;1.00
24446;DHT22;13347;50.984;5.822;2023-04-25T01:56:51;7.40;1.00
24446;DHT22;13347;50.984;5.822;2023-04-25T01:59:18;7.50;1.00
24446;DHT22;13347;50.984;5.822;2023-04-25T02:01:45;7.50;1.00
24446;DHT22;13347;50.984;5.822;2023-04-25T02:04:12;7.40;77.00
24446;DHT22;13347;50.984;5.822;2023-04-25T02:06:39;7.40;99.90
24446;DHT22;13347;50.984;5.822;2023-04-25T02:09:06;7.40;99.90
24446;DHT22;13347;50.984;5.822;2023-04-25T02:11:33;7.30;99.90
24446;DHT22;13347;50.984;5.822;2023-04-25T02:14:01;7.30;99.90
24446;DHT22;13347;50.984;5.822;2023-04-25T02:16:28;7.30;99.90
24446;DHT22;13347;50.984;5.822;2023-04-25T02:18:56;7.20;99.90
24446;DHT22;13347;50.984;5.822;2023-04-25T02:21:23;7.10;1.00
24446;DHT22;13347;50.984;5.822;2023-04-25T02:23:49;7.10;1.00
24446;DHT22;13347;50.984;5.822;2023-04-25T02:26:17;7.10;1.00
24446;DHT22;13347;50.984;5.822;2023-04-25T02:28:44;7.00;1.00
24446;DHT22;13347;50.984;5.822;2023-04-25T02:31:12;7.20;1.00
24446;DHT22;13347;50.984;5.822;2023-04-25T02:33:39;7.20;1.00
24446;DHT22;13347;50.984;5.822;2023-04-25T02:36:06;7.20;1.00
24446;DHT22;13347;50.984;5.822;2023-04-25T02:38:33;7.10;1.00
24446;DHT22;13347;50.984;5.822;2023-04-25T02:41:00;7.20;1.00
24446;DHT22;13347;50.984;5.822;2023-04-25T02:43:27;7.20;1.00
24446;DHT22;13347;50.984;5.822;2023-04-25T02:45:54;7.20;1.00
24446;DHT22;13347;50.984;5.822;2023-04-25T02:48:23;7.10;1.00
24446;DHT22;13347;50.984;5.822;2023-04-25T02:50:50;7.00;1.00
24446;DHT22;13347;50.984;5.822;2023-04-25T02:53:17;6.90;1.00
24446;DHT22;13347;50.984;5.822;2023-04-25T02:55:44;6.80;99.90
24446;DHT22;13347;50.984;5.822;2023-04-25T02:58:10;6.80;99.90
24446;DHT22;13347;50.984;5.822;2023-04-25T03:00:37;7.00;99.90
24446;DHT22;13347;50.984;5.822;2023-04-25T03:03:04;7.00;99.90
24446;DHT22;13347;50.984;5.822;2023-04-25T03:05:33;7.00;56.70
24446;DHT22;13347;50.984;5.822;2023-04-25T03:07:59;6.80;99.90
24446;DHT22;13347;50.984;5.822;2023-04-25T03:10:26;6.90;99.90
24446;DHT22;13347;50.984;5.822;2023-04-25T03:12:53;6.90;99.90
24446;DHT22;13347;50.984;5.822;2023-04-25T03:15:20;6.90;99.90
24446;DHT22;13347;50.984;5.822;2023-04-25T03:17:47;6.80;99.90
24446;DHT22;13347;50.984;5.822;2023-04-25T03:20:14;6.80;99.90
24446;DHT22;13347;50.984;5.822;2023-04-25T03:22:42;6.90;99.90
24446;DHT22;13347;50.984;5.822;2023-04-25T03:25:09;6.90;99.90
24446;DHT22;13347;50.984;5.822;2023-04-25T03:27:36;6.80;99.90
24446;DHT22;13347;50.984;5.822;2023-04-25T03:30:04;6.80;1.00
24446;DHT22;13347;50.984;5.822;2023-04-25T03:32:32;6.80;1.00
24446;DHT22;13347;50.984;5.822;2023-04-25T03:34:58;6.80;1.00
24446;DHT22;13347;50.984;5.822;2023-04-25T03:37:25;6.80;1.00
24446;DHT22;13347;50.984;5.822;2023-04-25T03:39:54;6.70;58.20
24446;DHT22;13347;50.984;5.822;2023-04-25T03:42:21;6.70;1.00
24446;DHT22;13347;50.984;5.822;2023-04-25T03:44:48;6.70;1.00
24446;DHT22;13347;50.984;5.822;2023-04-25T03:47:15;6.70;19.50
24446;DHT22;13347;50.984;5.822;2023-04-25T03:49:42;6.60;96.30
24446;DHT22;13347;50.984;5.822;2023-04-25T03:52:10;6.50;1.00
24446;DHT22;13347;50.984;5.822;2023-04-25T03:54:36;6.40;1.00
24446;DHT22;13347;50.984;5.822;2023-04-25T03:57:05;6.50;1.00
24446;DHT22;13347;50.984;5.822;2023-04-25T03:59:32;6.50;1.00
24446;DHT22;13347;50.984;5.822;2023-04-25T04:01:58;6.70;99.90
24446;DHT22;13347;50.984;5.822;2023-04-25T04:04:25;6.80;99.90
24446;DHT22;13347;50.984;5.822;2023-04-25T04:06:52;6.70;99.90
24446;DHT22;13347;50.984;5.822;2023-04-25T04:09:19;6.70;99.90
24446;DHT22;13347;50.984;5.822;2023-04-25T04:11:46;6.70;99.90
24446;DHT22;13347;50.984;5.822;2023-04-25T04:14:14;6.70;99.90
24446;DHT22;13347;50.984;5.822;2023-04-25T04:16:41;6.80;99.40
24446;DHT22;13347;50.984;5.822;2023-04-25T04:19:08;6.80;12.30
24446;DHT22;13347;50.984;5.822;2023-04-25T04:21:35;6.70;1.00
24446;DHT22;13347;50.984;5.822;2023-04-25T04:24:02;6.80;99.90
24446;DHT22;13347;50.984;5.822;2023-04-25T04:26:29;6.70;80.60
24446;DHT22;13347;50.984;5.822;2023-04-25T04:28:57;6.80;36.00
24446;DHT22;13347;50.984;5.822;2023-04-25T04:31:26;6.70;1.00
24446;DHT22;13347;50.984;5.822;2023-04-25T04:33:53;6.70;99.90
24446;DHT22;13347;50.984;5.822;2023-04-25T04:36:19;6.50;99.90
24446;DHT22;13347;50.984;5.822;2023-04-25T04:38:47;6.70;99.90
24446;DHT22;13347;50.984;5.822;2023-04-25T04:41:14;6.60;99.90
24446;DHT22;13347;50.984;5.822;2023-04-25T04:43:41;6.60;99.90
24446;DHT22;13347;50.984;5.822;2023-04-25T04:46:08;6.60;99.90
24446;DHT22;13347;50.984;5.822;2023-04-25T04:48:39;6.60;99.90
24446;DHT22;13347;50.984;5.822;2023-04-25T04:51:06;6.80;62.70
24446;DHT22;13347;50.984;5.822;2023-04-25T04:53:33;6.70;76.80
24446;DHT22;13347;50.984;5.822;2023-04-25T04:56:00;6.80;99.90
24446;DHT22;13347;50.984;5.822;2023-04-25T04:58:27;6.70;99.90
24446;DHT22;13347;50.984;5.822;2023-04-25T05:00:56;6.70;1.00
24446;DHT22;13347;50.984;5.822;2023-04-25T05:03:23;6.60;99.90
24446;DHT22;13347;50.984;5.822;2023-04-25T05:05:51;6.90;99.90
24446;DHT22;13347;50.984;5.822;2023-04-25T05:08:18;6.90;99.90
24446;DHT22;13347;50.984;5.822;2023-04-25T05:10:45;6.80;99.90
24446;DHT22;13347;50.984;5.822;2023-04-25T05:13:12;6.80;99.90
24446;DHT22;13347;50.984;5.822;2023-04-25T05:15:39;6.90;99.90
24446;DHT22;13347;50.984;5.822;2023-04-25T05:18:06;6.90;1.00
24446;DHT22;13347;50.984;5.822;2023-04-25T05:20:33;7.00;71.30
24446;DHT22;13347;50.984;5.822;2023-04-25T05:23:01;7.10;1.00
24446;DHT22;13347;50.984;5.822;2023-04-25T05:25:28;7.00;1.00
24446;DHT22;13347;50.984;5.822;2023-04-25T05:27:55;7.10;1.00
24446;DHT22;13347;50.984;5.822;2023-04-25T05:30:22;7.30;1.00
24446;DHT22;13347;50.984;5.822;2023-04-25T05:32:49;7.40;99.90
24446;DHT22;13347;50.984;5.822;2023-04-25T05:35:16;7.50;99.90
24446;DHT22;13347;50.984;5.822;2023-04-25T05:37:43;7.60;1.00
24446;DHT22;13347;50.984;5.822;2023-04-25T05:40:12;7.70;1.00
24446;DHT22;13347;50.984;5.822;2023-04-25T05:42:39;7.70;1.00
24446;DHT22;13347;50.984;5.822;2023-04-25T05:45:06;7.80;1.00
24446;DHT22;13347;50.984;5.822;2023-04-25T05:47:33;7.80;1.00
24446;DHT22;13347;50.984;5.822;2023-04-25T05:50:00;7.90;1.00
24446;DHT22;13347;50.984;5.822;2023-04-25T05:52:27;8.00;99.90
24446;DHT22;13347;50.984;5.822;2023-04-25T05:54:54;8.20;99.90
24446;DHT22;13347;50.984;5.822;2023-04-25T05:57:23;8.10;1.00
24446;DHT22;13347;50.984;5.822;2023-04-25T05:59:50;8.00;1.00
24446;DHT22;13347;50.984;5.822;2023-04-25T06:02:17;8.30;1.00
24446;DHT22;13347;50.984;5.822;2023-04-25T06:04:44;8.40;1.00
24446;DHT22;13347;50.984;5.822;2023-04-25T06:07:11;8.60;1.00
24446;DHT22;13347;50.984;5.822;2023-04-25T06:09:38;8.80;1.00
24446;DHT22;13347;50.984;5.822;2023-04-25T06:12:06;9.00;1.00
24446;DHT22;13347;50.984;5.822;2023-04-25T06:14:35;9.00;1.00
24446;DHT22;13347;50.984;5.822;2023-04-25T06:17:02;9.00;99.90
24446;DHT22;13347;50.984;5.822;2023-04-25T06:19:32;8.80;99.90
24446;DHT22;13347;50.984;5.822;2023-04-25T06:21:59;8.90;99.90
24446;DHT22;13347;50.984;5.822;2023-04-25T06:24:26;9.10;99.90
24446;DHT22;13347;50.984;5.822;2023-04-25T06:26:53;9.40;43.70
24446;DHT22;13347;50.984;5.822;2023-04-25T06:29:20;9.80;1.00
24446;DHT22;13347;50.984;5.822;2023-04-25T06:31:49;9.90;1.00
24446;DHT22;13347;50.984;5.822;2023-04-25T06:34:16;9.60;1.00
24446;DHT22;13347;50.984;5.822;2023-04-25T06:36:43;9.50;1.00
24446;DHT22;13347;50.984;5.822;2023-04-25T06:39:10;9.40;1.00
24446;DHT22;13347;50.984;5.822;2023-04-25T06:41:37;9.20;1.00
24446;DHT22;13347;50.984;5.822;2023-04-25T06:44:04;9.50;1.00
24446;DHT22;13347;50.984;5.822;2023-04-25T06:46:31;9.30;1.00
24446;DHT22;13347;50.984;5.822;2023-04-25T06:48:59;9.40;1.00
24446;DHT22;13347;50.984;5.822;2023-04-25T06:51:26;9.60;1.00
24446;DHT22;13347;50.984;5.822;2023-04-25T06:53:55;9.30;1.00
24446;DHT22;13347;50.984;5.822;2023-04-25T06:56:22;9.30;1.00
24446;DHT22;13347;50.984;5.822;2023-04-25T06:58:49;9.20;1.00
24446;DHT22;13347;50.984;5.822;2023-04-25T07:01:16;9.10;1.00
24446;DHT22;13347;50.984;5.822;2023-04-25T07:03:43;9.20;1.00
24446;DHT22;13347;50.984;5.822;2023-04-25T07:06:11;9.20;1.00
24446;DHT22;13347;50.984;5.822;2023-04-25T07:08:38;9.10;1.00
24446;DHT22;13347;50.984;5.822;2023-04-25T07:11:05;9.20;1.00
24446;DHT22;13347;50.984;5.822;2023-04-25T07:13:32;9.60;1.00
24446;DHT22;13347;50.984;5.822;2023-04-25T07:15:59;9.70;1.00
24446;DHT22;13347;50.984;5.822;2023-04-25T07:18:26;9.50;1.00
24446;DHT22;13347;50.984;5.822;2023-04-25T07:20:53;9.60;1.00
24446;DHT22;13347;50.984;5.822;2023-04-25T07:23:22;9.80;1.00
24446;DHT22;13347;50.984;5.822;2023-04-25T07:25:49;9.90;1.00
24446;DHT22;13347;50.984;5.822;2023-04-25T07:28:15;10.00;1.00
24446;DHT22;13347;50.984;5.822;2023-04-25T07:30:43;9.90;99.90
24446;DHT22;13347;50.984;5.822;2023-04-25T07:33:10;9.60;99.90
24446;DHT22;13347;50.984;5.822;2023-04-25T07:35:37;9.70;99.90
24446;DHT22;13347;50.984;5.822;2023-04-25T07:38:04;9.90;99.90
24446;DHT22;13347;50.984;5.822;2023-04-25T07:40:33;9.70;99.90
24446;DHT22;13347;50.984;5.822;2023-04-25T07:43:00;9.50;99.90
24446;DHT22;13347;50.984;5.822;2023-04-25T07:45:27;9.60;99.90
24446;DHT22;13347;50.984;5.822;2023-04-25T07:47:54;9.70;99.90
24446;DHT22;13347;50.984;5.822;2023-04-25T07:50:21;9.60;39.40
24446;DHT22;13347;50.984;5.822;2023-04-25T07:52:48;9.50;1.00
24446;DHT22;13347;50.984;5.822;2023-04-25T07:55:15;9.60;1.00
24446;DHT22;13347;50.984;5.822;2023-04-25T07:57:44;10.00;60.10
24446;DHT22;13347;50.984;5.822;2023-04-25T08:00:11;10.30;1.00
24446;DHT22;13347;50.984;5.822;2023-04-25T08:02:38;10.30;1.00
24446;DHT22;13347;50.984;5.822;2023-04-25T08:05:06;10.40;1.00
24446;DHT22;13347;50.984;5.822;2023-04-25T08:07:37;10.60;1.00
24446;DHT22;13347;50.984;5.822;2023-04-25T08:10:04;10.70;1.00
24446;DHT22;13347;50.984;5.822;2023-04-25T08:12:31;10.90;1.00
24446;DHT22;13347;50.984;5.822;2023-04-25T08:15:00;10.90;1.00
24446;DHT22;13347;50.984;5.822;2023-04-25T08:17:27;11.00;1.00
24446;DHT22;13347;50.984;5.822;2023-04-25T08:19:54;11.00;1.00
24446;DHT22;13347;50.984;5.822;2023-04-25T08:22:21;10.90;1.00
24446;DHT22;13347;50.984;5.822;2023-04-25T08:24:48;10.60;1.00
24446;DHT22;13347;50.984;5.822;2023-04-25T08:27:15;11.00;1.00
24446;DHT22;13347;50.984;5.822;2023-04-25T08:29:42;11.20;1.00
24446;DHT22;13347;50.984;5.822;2023-04-25T08:32:10;11.20;1.00
24446;DHT22;13347;50.984;5.822;2023-04-25T08:34:37;11.00;1.00
24446;DHT22;13347;50.984;5.822;2023-04-25T08:37:07;10.90;1.00
24446;DHT22;13347;50.984;5.822;2023-04-25T08:39:35;11.30;1.00
24446;DHT22;13347;50.984;5.822;2023-04-25T08:42:02;11.60;1.00
24446;DHT22;13347;50.984;5.822;2023-04-25T08:44:32;11.40;1.00
24446;DHT22;13347;50.984;5.822;2023-04-25T08:46:59;10.70;1.00
24446;DHT22;13347;50.984;5.822;2023-04-25T08:49:28;10.30;1.00
24446;DHT22;13347;50.984;5.822;2023-04-25T08:51:55;10.40;1.00
24446;DHT22;13347;50.984;5.822;2023-04-25T08:54:26;10.70;1.00
24446;DHT22;13347;50.984;5.822;2023-04-25T08:56:54;10.70;1.00
24446;DHT22;13347;50.984;5.822;2023-04-25T08:59:21;10.60;1.00
24446;DHT22;13347;50.984;5.822;2023-04-25T09:01:49;10.70;1.00
24446;DHT22;13347;50.984;5.822;2023-04-25T09:04:17;10.80;1.00
24446;DHT22;13347;50.984;5.822;2023-04-25T09:06:45;11.00;1.00
24446;DHT22;13347;50.984;5.822;2023-04-25T09:09:12;11.30;1.00
24446;DHT22;13347;50.984;5.822;2023-04-25T09:11:39;11.40;1.00
24446;DHT22;13347;50.984;5.822;2023-04-25T09:14:10;11.40;1.00
24446;DHT22;13347;50.984;5.822;2023-04-25T09:16:44;11.30;1.00
24446;DHT22;13347;50.984;5.822;2023-04-25T09:19:25;11.40;1.00
24446;DHT22;13347;50.984;5.822;2023-04-25T09:21:54;11.50;99.90
24446;DHT22;13347;50.984;5.822;2023-04-25T09:24:29;11.50;99.90
24446;DHT22;13347;50.984;5.822;2023-04-25T09:26:57;11.80;99.90
24446;DHT22;13347;50.984;5.822;2023-04-25T09:29:28;11.80;1.00
24446;DHT22;13347;50.984;5.822;2023-04-25T09:32:03;11.30;99.90
24446;DHT22;13347;50.984;5.822;2023-04-25T09:34:38;11.20;99.90
24446;DHT22;13347;50.984;5.822;2023-04-25T09:37:07;10.70;1.00
24446;DHT22;13347;50.984;5.822;2023-04-25T09:39:34;10.50;1.00
24446;DHT22;13347;50.984;5.822;2023-04-25T09:42:01;10.30;99.90
24446;DHT22;13347;50.984;5.822;2023-04-25T09:44:29;10.50;1.00
24446;DHT22;13347;50.984;5.822;2023-04-25T09:46:56;10.50;1.00
24446;DHT22;13347;50.984;5.822;2023-04-25T09:49:24;10.50;1.00
24446;DHT22;13347;50.984;5.822;2023-04-25T09:51:54;10.70;1.00
24446;DHT22;13347;50.984;5.822;2023-04-25T09:54:24;10.70;1.00
24446;DHT22;13347;50.984;5.822;2023-04-25T09:56:51;10.80;1.00
24446;DHT22;13347;50.984;5.822;2023-04-25T09:59:19;10.90;1.00
24446;DHT22;13347;50.984;5.822;2023-04-25T10:01:47;10.90;1.00
24446;DHT22;13347;50.984;5.822;2023-04-25T10:04:16;11.50;1.00
24446;DHT22;13347;50.984;5.822;2023-04-25T10:06:44;11.50;1.00
24446;DHT22;13347;50.984;5.822;2023-04-25T10:09:12;11.80;99.90
24446;DHT22;13347;50.984;5.822;2023-04-25T10:11:42;12.90;1.00
24446;DHT22;13347;50.984;5.822;2023-04-25T10:14:09;15.10;1.00
24446;DHT22;13347;50.984;5.822;2023-04-25T10:16:36;15.10;99.90
24446;DHT22;13347;50.984;5.822;2023-04-25T10:19:04;13.50;99.90
24446;DHT22;13347;50.984;5.822;2023-04-25T10:21:31;12.40;99.90
24446;DHT22;13347;50.984;5.822;2023-04-25T10:23:59;11.70;99.90
24446;DHT22;13347;50.984;5.822;2023-04-25T10:26:26;11.00;99.90
24446;DHT22;13347;50.984;5.822;2023-04-25T10:28:58;10.50;99.90
24446;DHT22;13347;50.984;5.822;2023-04-25T10:31:26;10.20;99.90
24446;DHT22;13347;50.984;5.822;2023-04-25T10:33:53;10.00;99.90
24446;DHT22;13347;50.984;5.822;2023-04-25T10:36:21;9.70;99.90
24446;DHT22;13347;50.984;5.822;2023-04-25T10:38:48;9.70;99.90
24446;DHT22;13347;50.984;5.822;2023-04-25T10:41:18;9.70;99.90
24446;DHT22;13347;50.984;5.822;2023-04-25T10:43:46;9.70;99.90
24446;DHT22;13347;50.984;5.822;2023-04-25T10:46:15;9.70;99.90
24446;DHT22;13347;50.984;5.822;2023-04-25T10:48:45;9.90;99.90
24446;DHT22;13347;50.984;5.822;2023-04-25T10:51:15;10.10;99.90
24446;DHT22;13347;50.984;5.822;2023-04-25T10:53:43;10.30;99.90
24446;DHT22;13347;50.984;5.822;2023-04-25T10:56:10;10.70;99.90
24446;DHT22;13347;50.984;5.822;2023-04-25T10:58:41;11.10;99.90
24446;DHT22;13347;50.984;5.822;2023-04-25T11:01:08;11.30;99.90
24446;DHT22;13347;50.984;5.822;2023-04-25T11:03:39;11.40;99.90
24446;DHT22;13347;50.984;5.822;2023-04-25T11:06:07;11.30;99.90
24446;DHT22;13347;50.984;5.822;2023-04-25T11:08:40;11.20;99.90
24446;DHT22;13347;50.984;5.822;2023-04-25T11:11:14;11.20;99.90
24446;DHT22;13347;50.984;5.822;2023-04-25T11:13:41;11.30;99.90
24446;DHT22;13347;50.984;5.822;2023-04-25T11:16:08;11.70;99.90
24446;DHT22;13347;50.984;5.822;2023-04-25T11:18:35;11.70;99.90
24446;DHT22;13347;50.984;5.822;2023-04-25T11:21:05;12.10;99.90
24446;DHT22;13347;50.984;5.822;2023-04-25T11:23:32;12.80;99.90
24446;DHT22;13347;50.984;5.822;2023-04-25T11:25:59;12.70;19.60
24446;DHT22;13347;50.984;5.822;2023-04-25T11:28:27;12.60;1.00
24446;DHT22;13347;50.984;5.822;2023-04-25T11:30:54;12.40;16.40
24446;DHT22;13347;50.984;5.822;2023-04-25T11:33:23;13.00;1.00
24446;DHT22;13347;50.984;5.822;2023-04-25T11:35:50;13.00;1.00
24446;DHT22;13347;50.984;5.822;2023-04-25T11:38:18;13.60;1.00
24446;DHT22;13347;50.984;5.822;2023-04-25T11:40:49;14.10;28.30
24446;DHT22;13347;50.984;5.822;2023-04-25T11:43:16;13.50;1.00
24446;DHT22;13347;50.984;5.822;2023-04-25T11:45:45;13.00;1.00
24446;DHT22;13347;50.984;5.822;2023-04-25T11:48:12;13.00;1.00
24446;DHT22;13347;50.984;5.822;2023-04-25T11:50:39;12.70;1.00
24446;DHT22;13347;50.984;5.822;2023-04-25T11:53:06;12.70;1.00
24446;DHT22;13347;50.984;5.822;2023-04-25T11:55:35;13.00;1.00
24446;DHT22;13347;50.984;5.822;2023-04-25T11:58:03;13.00;1.00
24446;DHT22;13347;50.984;5.822;2023-04-25T12:00:30;13.00;1.00
24446;DHT22;13347;50.984;5.822;2023-04-25T12:02:57;13.20;1.00
24446;DHT22;13347;50.984;5.822;2023-04-25T12:05:26;14.10;1.00
24446;DHT22;13347;50.984;5.822;2023-04-25T12:07:53;14.90;1.00
24446;DHT22;13347;50.984;5.822;2023-04-25T12:10:20;13.90;1.00
24446;DHT22;13347;50.984;5.822;2023-04-25T12:12:49;13.10;1.00
24446;DHT22;13347;50.984;5.822;2023-04-25T12:15:16;13.10;1.00
24446;DHT22;13347;50.984;5.822;2023-04-25T12:17:45;13.40;1.00
24446;DHT22;13347;50.984;5.822;2023-04-25T12:20:13;13.20;1.00
24446;DHT22;13347;50.984;5.822;2023-04-25T12:22:40;13.30;1.00
24446;DHT22;13347;50.984;5.822;2023-04-25T12:25:10;13.40;1.00
24446;DHT22;13347;50.984;5.822;2023-04-25T12:27:37;13.80;1.00
24446;DHT22;13347;50.984;5.822;2023-04-25T12:30:07;13.80;1.00
24446;DHT22;13347;50.984;5.822;2023-04-25T12:32:36;14.40;1.00
24446;DHT22;13347;50.984;5.822;2023-04-25T12:35:03;15.30;1.00
24446;DHT22;13347;50.984;5.822;2023-04-25T12:37:30;15.80;1.00
24446;DHT22;13347;50.984;5.822;2023-04-25T12:39:57;15.20;1.00
24446;DHT22;13347;50.984;5.822;2023-04-25T12:42:24;14.60;1.00
24446;DHT22;13347;50.984;5.822;2023-04-25T12:44:51;14.40;1.00
24446;DHT22;13347;50.984;5.822;2023-04-25T12:47:19;13.70;1.00
24446;DHT22;13347;50.984;5.822;2023-04-25T12:49:46;12.70;1.00
24446;DHT22;13347;50.984;5.822;2023-04-25T12:52:14;12.20;1.00
24446;DHT22;13347;50.984;5.822;2023-04-25T12:54:41;11.60;1.00
24446;DHT22;13347;50.984;5.822;2023-04-25T12:57:08;10.80;1.00
24446;DHT22;13347;50.984;5.822;2023-04-25T12:59:35;10.30;1.00
24446;DHT22;13347;50.984;5.822;2023-04-25T13:02:01;10.00;1.00
24446;DHT22;13347;50.984;5.822;2023-04-25T13:04:30;10.00;1.00
24446;DHT22;13347;50.984;5.822;2023-04-25T13:06:57;10.30;1.00
24446;DHT22;13347;50.984;5.822;2023-04-25T13:09:23;10.70;1.00
24446;DHT22;13347;50.984;5.822;2023-04-25T13:11:50;11.20;1.00
24446;DHT22;13347;50.984;5.822;2023-04-25T13:14:17;11.60;1.00
24446;DHT22;13347;50.984;5.822;2023-04-25T13:16:44;11.90;1.00
24446;DHT22;13347;50.984;5.822;2023-04-25T13:19:11;11.90;1.00
24446;DHT22;13347;50.984;5.822;2023-04-25T13:21:40;12.00;1.00
24446;DHT22;13347;50.984;5.822;2023-04-25T13:24:06;12.00;1.00
24446;DHT22;13347;50.984;5.822;2023-04-25T13:26:33;12.10;1.00
24446;DHT22;13347;50.984;5.822;2023-04-25T13:29:01;12.30;1.00
24446;DHT22;13347;50.984;5.822;2023-04-25T13:31:29;12.60;1.00
24446;DHT22;13347;50.984;5.822;2023-04-25T13:33:56;13.30;1.00
24446;DHT22;13347;50.984;5.822;2023-04-25T13:36:23;14.10;1.00
24446;DHT22;13347;50.984;5.822;2023-04-25T13:38:52;13.70;1.00
24446;DHT22;13347;50.984;5.822;2023-04-25T13:41:19;13.70;1.00
24446;DHT22;13347;50.984;5.822;2023-04-25T13:43:46;13.60;1.00
24446;DHT22;13347;50.984;5.822;2023-04-25T13:46:14;13.10;1.00
24446;DHT22;13347;50.984;5.822;2023-04-25T13:48:41;12.70;2.80
24446;DHT22;13347;50.984;5.822;2023-04-25T13:51:15;12.40;1.00
24446;DHT22;13347;50.984;5.822;2023-04-25T13:53:43;11.70;1.00
24446;DHT22;13347;50.984;5.822;2023-04-25T13:56:11;11.50;1.00
24446;DHT22;13347;50.984;5.822;2023-04-25T13:58:38;11.40;1.00
24446;DHT22;13347;50.984;5.822;2023-04-25T14:01:05;11.40;1.00
24446;DHT22;13347;50.984;5.822;2023-04-25T14:03:33;11.20;1.00
24446;DHT22;13347;50.984;5.822;2023-04-25T14:06:00;11.20;1.00
24446;DHT22;13347;50.984;5.822;2023-04-25T14:08:27;10.90;1.00
24446;DHT22;13347;50.984;5.822;2023-04-25T14:10:54;10.80;1.00
24446;DHT22;13347;50.984;5.822;2023-04-25T14:13:22;10.80;1.00
24446;DHT22;13347;50.984;5.822;2023-04-25T14:15:50;10.90;1.00
24446;DHT22;13347;50.984;5.822;2023-04-25T14:18:17;11.10;1.00
24446;DHT22;13347;50.984;5.822;2023-04-25T14:20:44;11.30;1.00
24446;DHT22;13347;50.984;5.822;2023-04-25T14:23:11;11.40;1.00
24446;DHT22;13347;50.984;5.822;2023-04-25T14:25:38;11.70;1.00
24446;DHT22;13347;50.984;5.822;2023-04-25T14:28:05;12.20;1.00
24446;DHT22;13347;50.984;5.822;2023-04-25T14:30:34;13.30;1.00
24446;DHT22;13347;50.984;5.822;2023-04-25T14:33:01;13.90;1.00
24446;DHT22;13347;50.984;5.822;2023-04-25T14:35:28;13.90;1.00
24446;DHT22;13347;50.984;5.822;2023-04-25T14:37:55;13.80;1.00
24446;DHT22;13347;50.984;5.822;2023-04-25T14:40:22;13.30;1.00
24446;DHT22;13347;50.984;5.822;2023-04-25T14:42:49;12.40;1.00
24446;DHT22;13347;50.984;5.822;2023-04-25T14:45:16;12.40;1.00
24446;DHT22;13347;50.984;5.822;2023-04-25T14:47:45;12.10;1.00
24446;DHT22;13347;50.984;5.822;2023-04-25T14:50:12;12.10;1.00
24446;DHT22;13347;50.984;5.822;2023-04-25T14:52:38;12.20;1.00
24446;DHT22;13347;50.984;5.822;2023-04-25T14:55:06;12.30;1.00
24446;DHT22;13347;50.984;5.822;2023-04-25T14:57:33;12.50;1.00
24446;DHT22;13347;50.984;5.822;2023-04-25T15:00:00;13.20;1.00
24446;DHT22;13347;50.984;5.822;2023-04-25T15:02:27;14.00;1.00
24446;DHT22;13347;50.984;5.822;2023-04-25T15:04:55;14.60;1.00
24446;DHT22;13347;50.984;5.822;2023-04-25T15:07:22;13.10;1.00
24446;DHT22;13347;50.984;5.822;2023-04-25T15:09:50;12.40;1.00
24446;DHT22;13347;50.984;5.822;2023-04-25T15:12:18;12.90;1.00
24446;DHT22;13347;50.984;5.822;2023-04-25T15:14:45;12.80;1.00
24446;DHT22;13347;50.984;5.822;2023-04-25T15:17:12;12.60;1.00
24446;DHT22;13347;50.984;5.822;2023-04-25T15:19:40;12.80;1.00
24446;DHT22;13347;50.984;5.822;2023-04-25T15:22:08;13.00;1.00
24446;DHT22;13347;50.984;5.822;2023-04-25T15:24:35;13.20;1.00
24446;DHT22;13347;50.984;5.822;2023-04-25T15:27:02;13.20;1.00
24446;DHT22;13347;50.984;5.822;2023-04-25T15:29:29;13.20;1.00
24446;DHT22;13347;50.984;5.822;2023-04-25T15:31:57;13.70;1.00
24446;DHT22;13347;50.984;5.822;2023-04-25T15:34:24;13.50;1.00
24446;DHT22;13347;50.984;5.822;2023-04-25T15:36:51;12.80;1.00
24446;DHT22;13347;50.984;5.822;2023-04-25T15:39:19;12.70;1.00
24446;DHT22;13347;50.984;5.822;2023-04-25T15:41:46;13.40;1.00
24446;DHT22;13347;50.984;5.822;2023-04-25T15:44:13;13.80;1.00
24446;DHT22;13347;50.984;5.822;2023-04-25T15:46:40;13.70;1.00
24446;DHT22;13347;50.984;5.822;2023-04-25T15:49:08;13.70;1.00
24446;DHT22;13347;50.984;5.822;2023-04-25T15:51:35;13.10;1.00